AirNav   Pilot Hours Calculator
 
 998 users online  

9FL8 Finlayson Farm Airport
Greenville, Florida, USA

GOING TO GREENVILLE?


FAA INFORMATION EFFECTIVE 10 OCTOBER 2019

Location

FAA Identifier: 9FL8
Lat/Long: 30-36-59.7270N 083-39-08.5670W
30-36.995450N 083-39.142783W
30.6165908,-83.6523797
(estimated)
Elevation: 150 ft. / 46 m (estimated)
Variation: 02W (1985)
From city: 9 miles N of GREENVILLE, FL
Time zone: UTC -4 (UTC -5 during Standard Time)
Zip code: 32344

Airport Operations

Airport use: Private use. Permission required prior to landing
Activation date: 04/1980
Control tower: no
ARTCC: JACKSONVILLE CENTER
FSS: GAINESVILLE FLIGHT SERVICE STATION
Attendance: UNATNDD
Wind indicator: no
Segmented circle: no

Nearby radio navigation aids

VOR radial/distance  VOR name  Freq  Var
GEFr059/7.8GREENVILLE VORTAC109.0001E
OTKr245/21.6VALDOSTA VOR/DME114.8002W
SZWr082/37.4SEMINOLE VORTAC117.5002E

 
NDB name  Hdg/Dist  Freq  Var  ID
PATON161/22.324505WGTP --. - .--.
CAIDY126/30.833804WCYR -.-. -.-- .-.

Airport Services

Runway Information

Runway 9/27

Dimensions: 3000 x 100 ft. / 914 x 30 m
Surface: turf
RUNWAY 9  RUNWAY 27
Traffic pattern: leftleft
Obstructions: trees, 200 ft. from runwayplines, 200 ft. from runway

Airport Ownership and Management from official FAA records

Ownership: Privately-owned
Owner: E. H. FINLAYSON & SON, INC.
25 FINCREST CIRCLE
GREENVILLE, FL 32331
Phone 850-997-6203
Manager: JOHN M. FINLAYSON
25 FINCREST CIRCLE
GREENVILLE, FL 32331
Phone 904-997-6203

Additional Remarks

WASHOUT ACCROSS WEST END OF RWY.
FOR CD CTC VALDOSTA APCH AT 229-257-2207, WHEN APCH CLSD CTC JACKSONVILLE ARTCC AT 904-845-1592.

Instrument Procedures

There are no published instrument procedures at 9FL8.

Some nearby airports with instrument procedures:

4J5 - Quitman Brooks County Airport (12 nm N)
KTVI - Thomasville Regional Airport (21 nm NW)
KVLD - Valdosta Regional Airport (22 nm NE)
KMGR - Moultrie Municipal Airport (29 nm N)
70J - Cairo-Grady County Airport (31 nm NW)
 
Loc | Ops | Rwys | IFR | FBO | Links
Com | Nav | Svcs | Stats | Notes
Area around 9FL8 (Finlayson Farm Airport)
 
Road maps at: MapQuest Bing Google
 
Aerial photo
No photo
 
Sectional chart

 
Airport distance calculator
Flying to Finlayson Farm Airport? Find the distance to fly.

From to 9FL8

Sunrise and sunset
Times for 20-Oct-2019
 Local
(UTC-4)
 Zulu
(UTC)
Morning civil twilight07:1711:17
Sunrise07:4111:41
Sunset18:5722:57
Evening civil twilight19:2223:22

Current date and time
Zulu (UTC)  20-Oct-2019 15:05:51
Local (UTC-4)  20-Oct-2019 11:05:51
 
METAR
KTVI 
21nm NW 
201455Z AUTO 32004KT 10SM OVC007 17/15 A2997 RMK AO2
KVLD 
22nm NE 
201453Z VRB03KT 10SM OVC011 19/16 A2995 RMK AO2 SLP149 T01940156 51024
KMGR 
29nm N 
201455Z AUTO 29008KT 10SM OVC010 17/15 A2996 RMK AO2
KVAD 
31nm NE 
201456Z AUTO 29008KT 10SM OVC008 18/18 A2994 RMK AO2 OVC V BKN SLP140 T01810179 52025 $
K40J 
33nm S 
201455Z AUTO 30005KT 10SM OVC012 20/17 A2997 RMK AO2 T01980172
K24J 
38nm SE 
201455Z AUTO 27006KT 10SM OVC012 19/17 A2996 RMK A01
KTLH 
38nm W 
201453Z 33007KT 10SM OVC011 18/15 A2996 RMK AO2 SLP145 T01830150 51020
TAF
KVLD 
22nm NE 
201120Z 2012/2112 21005KT P6SM BKN010 FM201500 31004KT P6SM BKN015 FM201800 29004KT P6SM SCT250
NOTAMs
Click for the latest NOTAMs
NOTAMs are issued by the DoD/FAA and will open in a separate window not controlled by AirNav.

 

 
 

Would you like to see your business listed on this page?

 If your business provides an interesting product or service to pilots, flight crews, aircraft, or users of the Finlayson Farm Airport, you should consider listing it here.  To start the listing process, click on the button below
 
Add a business
 

Other Pages about Finlayson Farm Airport

Update a link
 
Copyright © AirNav, LLC. All rights reserved. Privacy Policy  Contact